createdAt,value
2017-01-24T00:00:04.897Z,1015.02
2017-01-24T00:01:04.648Z,1015.05
2017-01-24T00:02:04.600Z,1015.02
2017-01-24T00:03:05.310Z,1014.98
2017-01-24T00:04:04.804Z,1014.97
2017-01-24T00:05:05.002Z,1014.98
2017-01-24T00:06:04.881Z,1014.97
2017-01-24T00:07:05.300Z,1014.98
2017-01-24T00:08:04.798Z,1014.98
2017-01-24T00:09:04.836Z,1014.97
2017-01-24T00:10:05.033Z,1014.95
2017-01-24T00:11:04.797Z,1014.92
2017-01-24T00:12:05.043Z,1014.95
2017-01-24T00:13:04.742Z,1014.93
2017-01-24T00:14:04.808Z,1014.88
2017-01-24T00:15:05.182Z,1014.89
2017-01-24T00:16:05.202Z,1014.86
2017-01-24T00:17:04.963Z,1014.85
2017-01-24T00:18:05.117Z,1014.83
2017-01-24T00:19:04.890Z,1014.83
2017-01-24T00:20:04.823Z,1014.84
2017-01-24T00:21:05.109Z,1014.85
2017-01-24T00:22:05.314Z,1014.87
2017-01-24T00:23:04.870Z,1014.89
2017-01-24T00:24:05.084Z,1014.95
2017-01-24T00:25:05.212Z,1014.98
2017-01-24T00:26:04.804Z,1014.99
2017-01-24T00:27:05.055Z,1014.93
2017-01-24T00:28:05.348Z,1014.86
2017-01-24T00:29:05.015Z,1014.87
2017-01-24T00:30:05.174Z,1014.89
2017-01-24T00:31:05.028Z,1014.93
2017-01-24T00:32:05.065Z,1015
2017-01-24T00:33:05.277Z,1014.97
2017-01-24T00:34:05.203Z,1014.98
2017-01-24T00:35:04.957Z,1014.98
2017-01-24T00:36:04.980Z,1015.02
2017-01-24T00:37:05.204Z,1014.94
2017-01-24T00:38:05.057Z,1014.95
2017-01-24T00:39:05.172Z,1014.99
2017-01-24T00:40:05.172Z,1015.02
2017-01-24T00:41:05.024Z,1015.1
2017-01-24T00:42:05.272Z,1015.11
2017-01-24T00:43:05.282Z,1015.11
2017-01-24T00:44:05.023Z,1015.07
2017-01-24T00:45:05.607Z,1015.03
2017-01-24T00:46:05.082Z,1014.98
2017-01-24T00:47:05.258Z,1014.98
2017-01-24T00:48:05.271Z,1014.97
2017-01-24T00:49:05.333Z,1014.95
2017-01-24T00:50:05.335Z,1015.03
2017-01-24T00:51:05.242Z,1015.09
2017-01-24T00:52:05.297Z,1015.08
2017-01-24T00:53:05.441Z,1015.06
2017-01-24T00:54:05.185Z,1015.05
2017-01-24T00:55:05.285Z,1015.01
2017-01-24T00:56:05.213Z,1015.03
2017-01-24T00:57:05.738Z,1015.07
2017-01-24T00:58:05.235Z,1015.09
2017-01-24T00:59:05.564Z,1015.13
2017-01-24T01:00:05.367Z,1015.12
2017-01-24T01:01:05.424Z,1015.12
2017-01-24T01:02:05.432Z,1015.08
2017-01-24T01:03:05.353Z,1015.08
2017-01-24T01:04:05.386Z,1015.06
2017-01-24T01:05:05.322Z,1015.01
2017-01-24T01:06:05.288Z,1014.99
2017-01-24T01:07:05.545Z,1014.99
2017-01-24T01:08:05.553Z,1014.97
2017-01-24T01:09:05.581Z,1015.02
2017-01-24T01:10:05.369Z,1015.04
2017-01-24T01:11:05.559Z,1015.02
2017-01-24T01:12:05.733Z,1015.03
2017-01-24T01:13:05.751Z,1015.03
2017-01-24T01:14:05.744Z,1015.1
2017-01-24T01:15:05.906Z,1015.08
2017-01-24T01:16:05.752Z,1015.1
2017-01-24T01:17:05.544Z,1015.11
2017-01-24T01:18:05.691Z,1015.12
2017-01-24T01:19:05.499Z,1015.08
2017-01-24T01:20:05.720Z,1015.08
2017-01-24T01:21:06.057Z,1015.08
2017-01-24T01:22:05.789Z,1015.04
2017-01-24T01:23:05.863Z,1015.06
2017-01-24T01:24:05.730Z,1015.07
2017-01-24T01:25:05.901Z,1015.09
2017-01-24T01:26:05.811Z,1015.08
2017-01-24T01:27:05.639Z,1015.08
2017-01-24T01:28:05.612Z,1015.12
2017-01-24T01:29:05.970Z,1015.11
2017-01-24T01:30:05.567Z,1015.18
2017-01-24T01:31:05.623Z,1015.17
2017-01-24T01:32:06.152Z,1015.15
2017-01-24T01:33:05.660Z,1015.19
2017-01-24T01:34:06.321Z,1015.23
2017-01-24T01:35:05.578Z,1015.21
2017-01-24T01:36:05.705Z,1015.21
2017-01-24T01:37:06.510Z,1015.22
2017-01-24T01:38:06.073Z,1015.18
2017-01-24T01:39:05.740Z,1015.2
2017-01-24T01:40:05.889Z,1015.2
2017-01-24T01:41:05.785Z,1015.21
2017-01-24T01:42:05.951Z,1015.24
2017-01-24T01:43:06.024Z,1015.19
2017-01-24T01:44:05.888Z,1015.15
2017-01-24T01:45:06.317Z,1015.2
2017-01-24T01:46:05.977Z,1015.19
2017-01-24T01:47:05.807Z,1015.22
2017-01-24T01:48:06.043Z,1015.22
2017-01-24T01:49:06.423Z,1015.22
2017-01-24T01:50:05.914Z,1015.21
2017-01-24T01:51:05.983Z,1015.18
2017-01-24T01:52:05.923Z,1015.19
2017-01-24T01:53:05.957Z,1015.19
2017-01-24T01:54:06.121Z,1015.16
2017-01-24T01:55:05.907Z,1015.13
2017-01-24T01:56:05.918Z,1015.14
2017-01-24T01:57:06.053Z,1015.13
2017-01-24T01:58:06.095Z,1015.15
2017-01-24T01:59:06.243Z,1015.14
2017-01-24T02:00:06.070Z,1015.11
2017-01-24T02:01:06.241Z,1015.15
2017-01-24T02:02:06.047Z,1015.17
2017-01-24T02:03:06.274Z,1015.17
2017-01-24T02:04:05.963Z,1015.2
2017-01-24T02:05:06.029Z,1015.13
2017-01-24T02:06:06.035Z,1015.15
2017-01-24T02:07:06.115Z,1015.13
2017-01-24T02:08:06.325Z,1015.18
2017-01-24T02:09:06.176Z,1015.15
2017-01-24T02:10:06.521Z,1015.16
2017-01-24T02:11:06.110Z,1015.2
2017-01-24T02:12:06.304Z,1015.25
2017-01-24T02:13:06.133Z,1015.24
2017-01-24T02:14:06.140Z,1015.26
2017-01-24T02:15:06.114Z,1015.2
2017-01-24T02:16:06.118Z,1015.24
2017-01-24T02:17:06.128Z,1015.21
2017-01-24T02:18:06.207Z,1015.16
2017-01-24T02:19:06.508Z,1015.15
2017-01-24T02:20:06.592Z,1015.13
2017-01-24T02:21:06.240Z,1015.12
2017-01-24T02:22:06.170Z,1015.11
2017-01-24T02:23:06.425Z,1015.1
2017-01-24T02:24:06.593Z,1015.12
2017-01-24T02:25:06.575Z,1015.1
2017-01-24T02:26:06.233Z,1015.12
2017-01-24T02:27:06.317Z,1015.1
2017-01-24T02:28:06.363Z,1015.13
2017-01-24T02:29:06.449Z,1015.12
2017-01-24T02:30:06.175Z,1015.1
2017-01-24T02:31:06.354Z,1015.13
2017-01-24T02:32:06.377Z,1015.13
2017-01-24T02:33:06.438Z,1015.05
2017-01-24T02:34:07.001Z,1015.08
2017-01-24T02:35:06.531Z,1015.03
2017-01-24T02:36:06.645Z,1015.05
2017-01-24T02:37:06.425Z,1015.03
2017-01-24T02:38:06.708Z,1014.99
2017-01-24T02:39:06.580Z,1014.98
2017-01-24T02:40:06.526Z,1014.97
2017-01-24T02:41:06.347Z,1014.96
2017-01-24T02:42:06.432Z,1014.97
2017-01-24T02:43:06.571Z,1014.99
2017-01-24T02:44:06.690Z,1015
2017-01-24T02:45:06.606Z,1015
2017-01-24T02:46:06.490Z,1014.95
2017-01-24T02:47:06.488Z,1014.97
2017-01-24T02:48:06.504Z,1014.97
2017-01-24T02:49:06.562Z,1014.98
2017-01-24T02:50:06.529Z,1015
2017-01-24T02:51:06.685Z,1014.99
2017-01-24T02:52:06.446Z,1014.95
2017-01-24T02:53:06.585Z,1014.98
2017-01-24T02:54:06.626Z,1014.97
2017-01-24T02:55:06.641Z,1014.94
2017-01-24T02:56:06.823Z,1014.94
2017-01-24T02:57:06.674Z,1014.95
2017-01-24T02:58:06.686Z,1014.93
2017-01-24T02:59:06.726Z,1014.95
2017-01-24T03:00:06.730Z,1014.99
2017-01-24T03:01:07.000Z,1014.97
2017-01-24T03:02:06.804Z,1014.98
2017-01-24T03:03:06.951Z,1015.01
2017-01-24T03:04:06.669Z,1015
2017-01-24T03:05:06.596Z,1014.97
2017-01-24T03:06:06.686Z,1014.97
2017-01-24T03:07:06.713Z,1014.95
2017-01-24T03:08:07.355Z,1014.98
2017-01-24T03:09:06.669Z,1014.98
2017-01-24T03:10:06.675Z,1015
2017-01-24T03:11:06.747Z,1015.01
2017-01-24T03:12:06.695Z,1015.05
2017-01-24T03:13:06.859Z,1015.02
2017-01-24T03:14:06.852Z,1015.02
2017-01-24T03:15:06.716Z,1015.03
2017-01-24T03:16:07.095Z,1015.02
2017-01-24T03:17:06.806Z,1015.01
2017-01-24T03:18:07.128Z,1015.01
2017-01-24T03:19:07.048Z,1015.01
2017-01-24T03:20:07.134Z,1015.01
2017-01-24T03:21:06.806Z,1015
2017-01-24T03:22:06.935Z,1015.03
2017-01-24T03:23:06.787Z,1015.04
2017-01-24T03:24:06.917Z,1015.01
2017-01-24T03:25:07.415Z,1015.03
2017-01-24T03:26:07.069Z,1014.98
2017-01-24T03:27:07.084Z,1015.03
2017-01-24T03:28:07.197Z,1014.97
2017-01-24T03:29:07.025Z,1015.02
2017-01-24T03:30:06.932Z,1014.97
2017-01-24T03:31:06.873Z,1014.98
2017-01-24T03:32:06.924Z,1014.94
2017-01-24T03:33:07.232Z,1014.98
2017-01-24T03:34:07.044Z,1014.97
2017-01-24T03:35:07.155Z,1014.98
2017-01-24T03:36:07.069Z,1014.97
2017-01-24T03:37:07.071Z,1014.99
2017-01-24T03:38:06.978Z,1015
2017-01-24T03:39:07.341Z,1014.96
2017-01-24T03:40:07.199Z,1014.98
2017-01-24T03:41:07.341Z,1015
2017-01-24T03:42:07.203Z,1015.02
2017-01-24T03:43:07.377Z,1015.02
2017-01-24T03:44:07.334Z,1015.01
2017-01-24T03:45:07.312Z,1015.03
2017-01-24T03:46:07.166Z,1015.06
2017-01-24T03:47:07.253Z,1015.04
2017-01-24T03:48:07.219Z,1015.09
2017-01-24T03:49:07.326Z,1015.13
2017-01-24T03:50:07.310Z,1015.13
2017-01-24T03:51:07.332Z,1015.12
2017-01-24T03:52:07.115Z,1015.07
2017-01-24T03:53:07.241Z,1015.11
2017-01-24T03:54:07.229Z,1015.1
2017-01-24T03:55:07.324Z,1015.09
2017-01-24T03:56:07.116Z,1015.12
2017-01-24T03:57:07.235Z,1015.1
2017-01-24T03:58:07.523Z,1015.12
2017-01-24T03:59:07.340Z,1015.12
2017-01-24T04:00:07.253Z,1015.13
2017-01-24T04:01:07.195Z,1015.13
2017-01-24T04:02:07.270Z,1015.09
2017-01-24T04:03:07.395Z,1015.1
2017-01-24T04:04:07.450Z,1015.13
2017-01-24T04:05:08.015Z,1015.1
2017-01-24T04:06:07.650Z,1015.14
2017-01-24T04:07:07.357Z,1015.14
2017-01-24T04:08:07.495Z,1015.16
2017-01-24T04:09:07.512Z,1015.15
2017-01-24T04:10:07.472Z,1015.13
2017-01-24T04:11:07.674Z,1015.14
2017-01-24T04:12:07.421Z,1015.17
2017-01-24T04:13:07.479Z,1015.15
2017-01-24T04:14:07.565Z,1015.13
2017-01-24T04:15:07.615Z,1015.12
2017-01-24T04:16:07.439Z,1015.14
2017-01-24T04:17:07.613Z,1015.09
2017-01-24T04:18:07.621Z,1015.16
2017-01-24T04:19:07.782Z,1015.12
2017-01-24T04:20:07.715Z,1015.13
2017-01-24T04:21:07.567Z,1015.09
2017-01-24T04:22:07.568Z,1015.08
2017-01-24T04:23:07.719Z,1015.09
2017-01-24T04:24:07.765Z,1015.07
2017-01-24T04:25:07.699Z,1015.04
2017-01-24T04:26:07.621Z,1015.09
2017-01-24T04:27:07.682Z,1015.12
2017-01-24T04:28:07.847Z,1015.04
2017-01-24T04:29:07.574Z,1015.14
2017-01-24T04:30:07.676Z,1015.1
2017-01-24T04:31:07.557Z,1015.1
2017-01-24T04:32:07.648Z,1015.12
2017-01-24T04:33:07.565Z,1015.1
2017-01-24T04:34:07.563Z,1015.08
2017-01-24T04:35:08.016Z,1015.12
2017-01-24T04:36:07.866Z,1015.11
2017-01-24T04:37:07.711Z,1015.12
2017-01-24T04:38:07.783Z,1015.1
2017-01-24T04:39:08.651Z,1015.14
2017-01-24T04:40:08.297Z,1015.08
2017-01-24T04:41:07.680Z,1015.11
2017-01-24T04:42:07.694Z,1015.11
2017-01-24T04:43:07.743Z,1015.13
2017-01-24T04:44:07.967Z,1015.12
2017-01-24T04:45:07.936Z,1015.1
2017-01-24T04:46:07.664Z,1015.11
2017-01-24T04:47:07.910Z,1015.12
2017-01-24T04:48:07.693Z,1015.11
2017-01-24T04:49:07.747Z,1015.14
2017-01-24T04:50:07.848Z,1015.14
2017-01-24T04:51:08.065Z,1015.08
2017-01-24T04:52:07.958Z,1015.11
2017-01-24T04:53:07.950Z,1015.11
2017-01-24T04:54:07.823Z,1015.1
2017-01-24T04:55:08.036Z,1015.14
2017-01-24T04:56:07.830Z,1015.11
2017-01-24T04:57:07.797Z,1015.13
2017-01-24T04:58:08.255Z,1015.15
2017-01-24T04:59:08.059Z,1015.16
2017-01-24T05:00:08.015Z,1015.15
2017-01-24T05:01:07.992Z,1015.11
2017-01-24T05:02:08.095Z,1015.15
2017-01-24T05:03:08.101Z,1015.15
2017-01-24T05:04:07.916Z,1015.19
2017-01-24T05:05:08.103Z,1015.16
2017-01-24T05:06:08.075Z,1015.15
2017-01-24T05:07:08.371Z,1015.19
2017-01-24T05:08:08.045Z,1015.17
2017-01-24T05:09:07.930Z,1015.17
2017-01-24T05:10:08.034Z,1015.22
2017-01-24T05:11:08.025Z,1015.16
2017-01-24T05:12:08.267Z,1015.18
2017-01-24T05:13:08.446Z,1015.16
2017-01-24T05:14:08.395Z,1015.22
2017-01-24T05:15:08.502Z,1015.19
2017-01-24T05:16:08.652Z,1015.24
2017-01-24T05:17:08.392Z,1015.23
2017-01-24T05:18:08.029Z,1015.25
2017-01-24T05:19:08.341Z,1015.28
2017-01-24T05:20:08.858Z,1015.3
2017-01-24T05:21:08.451Z,1015.3
2017-01-24T05:22:08.353Z,1015.3
2017-01-24T05:23:08.910Z,1015.34
2017-01-24T05:24:08.167Z,1015.33
2017-01-24T05:25:08.741Z,1015.32
2017-01-24T05:26:09.243Z,1015.31
2017-01-24T05:27:09.191Z,1015.3
2017-01-24T05:28:08.584Z,1015.3
2017-01-24T05:29:08.466Z,1015.3
2017-01-24T05:30:08.871Z,1015.31
2017-01-24T05:31:09.005Z,1015.33
2017-01-24T05:32:08.457Z,1015.36
2017-01-24T05:33:08.800Z,1015.32
2017-01-24T05:34:08.591Z,1015.3
2017-01-24T05:35:08.809Z,1015.28
2017-01-24T05:36:08.630Z,1015.35
2017-01-24T05:37:08.451Z,1015.34
2017-01-24T05:38:08.618Z,1015.33
2017-01-24T05:39:08.312Z,1015.36
2017-01-24T05:40:08.699Z,1015.34
2017-01-24T05:41:09.035Z,1015.45
2017-01-24T05:42:08.552Z,1015.47
2017-01-24T05:43:08.720Z,1015.41
2017-01-24T05:44:08.731Z,1015.52
2017-01-24T05:45:08.668Z,1015.49
2017-01-24T05:46:08.829Z,1015.49
2017-01-24T05:47:09.020Z,1015.49
2017-01-24T05:48:08.613Z,1015.48
2017-01-24T05:49:08.649Z,1015.51
2017-01-24T05:50:08.541Z,1015.54
2017-01-24T05:51:08.792Z,1015.58
2017-01-24T05:52:08.858Z,1015.56
2017-01-24T05:53:08.618Z,1015.5
2017-01-24T05:54:09.003Z,1015.58
2017-01-24T05:55:08.965Z,1015.57
2017-01-24T05:56:08.769Z,1015.61
2017-01-24T05:57:08.912Z,1015.61
2017-01-24T05:58:08.776Z,1015.59
2017-01-24T05:59:08.612Z,1015.59
2017-01-24T06:00:09.669Z,1015.59
2017-01-24T06:01:08.653Z,1015.63
2017-01-24T06:02:08.523Z,1015.64
2017-01-24T06:03:09.060Z,1015.64
2017-01-24T06:04:08.990Z,1015.66
2017-01-24T06:05:09.475Z,1015.66
2017-01-24T06:06:09.055Z,1015.68
2017-01-24T06:07:09.530Z,1015.7
2017-01-24T06:08:09.064Z,1015.72
2017-01-24T06:09:08.749Z,1015.73
2017-01-24T06:10:08.738Z,1015.73
2017-01-24T06:11:08.746Z,1015.76
2017-01-24T06:12:08.980Z,1015.76
2017-01-24T06:13:09.454Z,1015.79
2017-01-24T06:14:09.722Z,1015.8
2017-01-24T06:15:09.417Z,1015.83
2017-01-24T06:16:09.345Z,1015.84
2017-01-24T06:17:08.895Z,1015.84
2017-01-24T06:18:08.752Z,1015.87
2017-01-24T06:19:08.888Z,1015.87
2017-01-24T06:20:08.923Z,1015.89
2017-01-24T06:21:08.797Z,1015.89
2017-01-24T06:22:09.218Z,1015.89
2017-01-24T06:23:09.119Z,1015.93
2017-01-24T06:24:08.792Z,1015.95
2017-01-24T06:25:09.031Z,1015.93
2017-01-24T06:26:09.467Z,1015.98
2017-01-24T06:27:08.791Z,1015.95
2017-01-24T06:28:08.812Z,1015.99
2017-01-24T06:29:08.957Z,1016.04
2017-01-24T06:30:08.765Z,1016
2017-01-24T06:31:08.940Z,1016.02
2017-01-24T06:32:09.330Z,1016.02
2017-01-24T06:33:09.169Z,1016.06
2017-01-24T06:34:09.704Z,1016.05
2017-01-24T06:35:08.958Z,1016.03
2017-01-24T06:36:09.181Z,1016.05
2017-01-24T06:37:09.366Z,1016.05
2017-01-24T06:38:08.845Z,1016.07
2017-01-24T06:39:09.046Z,1016.09
2017-01-24T06:40:09.554Z,1016.08
2017-01-24T06:41:09.337Z,1016.08
2017-01-24T06:42:09.051Z,1016.09
2017-01-24T06:43:09.161Z,1016.11
2017-01-24T06:44:09.132Z,1016.13
2017-01-24T06:45:09.217Z,1016.15
2017-01-24T06:46:09.019Z,1016.1
2017-01-24T06:47:09.029Z,1016.13
2017-01-24T06:48:09.147Z,1016.15
2017-01-24T06:49:09.255Z,1016.17
2017-01-24T06:50:09.184Z,1016.18
2017-01-24T06:51:09.384Z,1016.22
2017-01-24T06:52:09.182Z,1016.22
2017-01-24T06:53:09.176Z,1016.2
2017-01-24T06:54:09.229Z,1016.2
2017-01-24T06:55:09.142Z,1016.2
2017-01-24T06:56:09.116Z,1016.23
2017-01-24T06:57:09.179Z,1016.26
2017-01-24T06:58:09.267Z,1016.26
2017-01-24T06:59:09.045Z,1016.26
2017-01-24T07:00:09.399Z,1016.26
2017-01-24T07:01:09.088Z,1016.26
2017-01-24T07:02:09.179Z,1016.27
2017-01-24T07:03:09.166Z,1016.33
2017-01-24T07:04:09.434Z,1016.29
2017-01-24T07:05:09.393Z,1016.29
2017-01-24T07:06:09.386Z,1016.31
2017-01-24T07:07:09.451Z,1016.27
2017-01-24T07:08:09.463Z,1016.33
2017-01-24T07:09:09.533Z,1016.35
2017-01-24T07:10:09.429Z,1016.35
2017-01-24T07:11:09.237Z,1016.42
2017-01-24T07:12:09.313Z,1016.43
2017-01-24T07:13:09.230Z,1016.43
2017-01-24T07:14:09.526Z,1016.43
2017-01-24T07:15:09.637Z,1016.4
2017-01-24T07:16:09.325Z,1016.47
2017-01-24T07:17:09.464Z,1016.51
2017-01-24T07:18:09.370Z,1016.5
2017-01-24T07:19:09.406Z,1016.52
2017-01-24T07:20:09.676Z,1016.49
2017-01-24T07:21:09.391Z,1016.49
2017-01-24T07:22:09.394Z,1016.51
2017-01-24T07:23:09.722Z,1016.54
2017-01-24T07:24:09.457Z,1016.56
2017-01-24T07:25:09.387Z,1016.48
2017-01-24T07:26:09.406Z,1016.5
2017-01-24T07:27:09.726Z,1016.51
2017-01-24T07:28:09.639Z,1016.48
2017-01-24T07:29:09.707Z,1016.5
2017-01-24T07:30:09.657Z,1016.49
2017-01-24T07:31:09.469Z,1016.46
2017-01-24T07:32:09.779Z,1016.48
2017-01-24T07:33:09.835Z,1016.5
2017-01-24T07:34:09.894Z,1016.47
2017-01-24T07:35:10.086Z,1016.51
2017-01-24T07:36:09.648Z,1016.47
2017-01-24T07:37:09.813Z,1016.5
2017-01-24T07:38:10.133Z,1016.5
2017-01-24T07:39:09.771Z,1016.55
2017-01-24T07:40:09.715Z,1016.54
2017-01-24T07:41:09.636Z,1016.6
2017-01-24T07:42:09.807Z,1016.57
2017-01-24T07:43:09.908Z,1016.56
2017-01-24T07:44:09.668Z,1016.59
2017-01-24T07:45:09.597Z,1016.55
2017-01-24T07:46:09.810Z,1016.61
2017-01-24T07:47:09.694Z,1016.6
2017-01-24T07:48:09.720Z,1016.57
2017-01-24T07:49:09.673Z,1016.57
2017-01-24T07:50:09.613Z,1016.56
2017-01-24T07:51:09.798Z,1016.58
2017-01-24T07:52:09.632Z,1016.62
2017-01-24T07:53:09.936Z,1016.6
2017-01-24T07:54:09.723Z,1016.62
2017-01-24T07:55:09.678Z,1016.63
2017-01-24T07:56:09.786Z,1016.65
2017-01-24T07:57:09.811Z,1016.67
2017-01-24T07:58:09.789Z,1016.69
2017-01-24T07:59:10.641Z,1016.7
2017-01-24T08:00:09.862Z,1016.73
2017-01-24T08:01:10.105Z,1016.71
2017-01-24T08:02:09.904Z,1016.73
2017-01-24T08:03:10.253Z,1016.74
2017-01-24T08:04:09.973Z,1016.74
2017-01-24T08:05:10.573Z,1016.73
2017-01-24T08:06:10.100Z,1016.79
2017-01-24T08:07:10.486Z,1016.81
2017-01-24T08:08:10.041Z,1016.82
2017-01-24T08:09:10.219Z,1016.84
2017-01-24T08:10:09.997Z,1016.85
2017-01-24T08:11:10.080Z,1016.84
2017-01-24T08:12:10.502Z,1016.82
2017-01-24T08:13:10.456Z,1016.79
2017-01-24T08:14:10.016Z,1016.85
2017-01-24T08:15:09.986Z,1016.84
2017-01-24T08:16:10.196Z,1016.87
2017-01-24T08:17:10.287Z,1016.89
2017-01-24T08:18:09.967Z,1016.87
2017-01-24T08:19:10.217Z,1016.89
2017-01-24T08:20:10.347Z,1016.89
2017-01-24T08:21:10.192Z,1016.86
2017-01-24T08:22:10.082Z,1016.91
2017-01-24T08:23:10.168Z,1016.91
2017-01-24T08:24:10.345Z,1016.91
2017-01-24T08:25:10.171Z,1016.91
2017-01-24T08:26:10.090Z,1016.97
2017-01-24T08:27:10.541Z,1017.01
2017-01-24T08:28:10.504Z,1017.01
2017-01-24T08:29:10.317Z,1017.02
2017-01-24T08:30:10.083Z,1017.05
2017-01-24T08:31:10.314Z,1017.08
2017-01-24T08:32:10.192Z,1017.08
2017-01-24T08:33:10.263Z,1017.09
2017-01-24T08:34:10.425Z,1017.09
2017-01-24T08:35:10.157Z,1017.11
2017-01-24T08:36:10.243Z,1017.12
2017-01-24T08:37:10.329Z,1017.15
2017-01-24T08:38:10.445Z,1017.12
2017-01-24T08:39:10.593Z,1017.17
2017-01-24T08:40:10.220Z,1017.14
2017-01-24T08:41:10.384Z,1017.16
2017-01-24T08:42:10.460Z,1017.16
2017-01-24T08:43:10.384Z,1017.18
2017-01-24T08:44:10.224Z,1017.21
2017-01-24T08:45:10.367Z,1017.17
2017-01-24T08:46:10.363Z,1017.18
2017-01-24T08:47:10.283Z,1017.2
2017-01-24T08:48:10.464Z,1017.24
2017-01-24T08:49:10.401Z,1017.21
2017-01-24T08:50:10.430Z,1017.25
2017-01-24T08:51:10.544Z,1017.25
2017-01-24T08:52:10.461Z,1017.24
2017-01-24T08:53:10.416Z,1017.26
2017-01-24T08:54:10.394Z,1017.3
2017-01-24T08:55:10.548Z,1017.26
2017-01-24T08:56:10.385Z,1017.26
2017-01-24T08:57:10.514Z,1017.26
2017-01-24T08:58:10.672Z,1017.28
2017-01-24T08:59:10.624Z,1017.25
2017-01-24T09:00:10.532Z,1017.3
2017-01-24T09:01:10.569Z,1017.28
2017-01-24T09:02:10.739Z,1017.35
2017-01-24T09:03:10.666Z,1017.33
2017-01-24T09:04:10.816Z,1017.33
2017-01-24T09:05:10.639Z,1017.35
2017-01-24T09:06:10.936Z,1017.34
2017-01-24T09:07:10.876Z,1017.32
2017-01-24T09:08:10.590Z,1017.38
2017-01-24T09:09:10.796Z,1017.37
2017-01-24T09:10:10.610Z,1017.37
2017-01-24T09:11:10.667Z,1017.43
2017-01-24T09:12:10.795Z,1017.42
2017-01-24T09:13:10.790Z,1017.48
2017-01-24T09:14:10.633Z,1017.49
2017-01-24T09:15:10.649Z,1017.47
2017-01-24T09:16:10.819Z,1017.47
2017-01-24T09:17:10.589Z,1017.46
2017-01-24T09:18:10.936Z,1017.5
2017-01-24T09:19:10.886Z,1017.5
2017-01-24T09:20:10.830Z,1017.51
2017-01-24T09:21:10.825Z,1017.5
2017-01-24T09:22:10.895Z,1017.48
2017-01-24T09:23:10.654Z,1017.5
2017-01-24T09:24:10.675Z,1017.49
2017-01-24T09:25:11.238Z,1017.48
2017-01-24T09:26:10.797Z,1017.54
2017-01-24T09:27:11.032Z,1017.55
2017-01-24T09:28:11.003Z,1017.56
2017-01-24T09:29:10.785Z,1017.6
2017-01-24T09:30:10.737Z,1017.61
2017-01-24T09:31:11.020Z,1017.63
2017-01-24T09:32:10.800Z,1017.63
2017-01-24T09:33:10.808Z,1017.63
2017-01-24T09:34:10.759Z,1017.66
2017-01-24T09:35:10.941Z,1017.67
2017-01-24T09:36:10.955Z,1017.72
2017-01-24T09:37:10.961Z,1017.69
2017-01-24T09:38:11.261Z,1017.71
2017-01-24T09:39:11.236Z,1017.7
2017-01-24T09:40:11.131Z,1017.68
2017-01-24T09:41:10.906Z,1017.69
2017-01-24T09:42:11.154Z,1017.7
2017-01-24T09:43:10.926Z,1017.71
2017-01-24T09:44:11.308Z,1017.69
2017-01-24T09:45:11.006Z,1017.71
2017-01-24T09:46:11.109Z,1017.71
2017-01-24T09:47:11.188Z,1017.75
2017-01-24T09:48:11.453Z,1017.73
2017-01-24T09:49:11.170Z,1017.75
2017-01-24T09:50:11.031Z,1017.8
2017-01-24T09:51:11.152Z,1017.73
2017-01-24T09:52:11.465Z,1017.75
2017-01-24T09:53:11.196Z,1017.72
2017-01-24T09:54:11.089Z,1017.79
2017-01-24T09:55:11.196Z,1017.79
2017-01-24T09:56:11.544Z,1017.78
2017-01-24T09:57:11.312Z,1017.83
2017-01-24T09:58:11.068Z,1017.81
2017-01-24T09:59:11.129Z,1017.83
2017-01-24T10:00:11.347Z,1017.84
2017-01-24T10:01:11.150Z,1017.85
2017-01-24T10:02:11.476Z,1017.84
2017-01-24T10:03:11.194Z,1017.84
2017-01-24T10:04:11.289Z,1017.87
2017-01-24T10:05:11.609Z,1017.89
2017-01-24T10:06:11.376Z,1017.92
2017-01-24T10:07:11.281Z,1017.9
2017-01-24T10:08:11.234Z,1017.86
2017-01-24T10:09:11.441Z,1017.87
2017-01-24T10:10:11.422Z,1017.89
2017-01-24T10:11:11.252Z,1017.92
2017-01-24T10:12:11.332Z,1017.94
2017-01-24T10:13:11.625Z,1017.94
2017-01-24T10:14:11.271Z,1017.89
2017-01-24T10:15:11.329Z,1017.88
2017-01-24T10:16:11.369Z,1017.89
2017-01-24T10:17:11.387Z,1017.94
2017-01-24T10:18:11.372Z,1017.94
2017-01-24T10:19:11.474Z,1017.92
2017-01-24T10:20:11.507Z,1017.99
2017-01-24T10:21:11.624Z,1017.96
2017-01-24T10:22:11.630Z,1017.94
2017-01-24T10:23:11.326Z,1017.95
2017-01-24T10:24:11.511Z,1017.95
2017-01-24T10:25:11.419Z,1017.96
2017-01-24T10:26:11.553Z,1017.93
2017-01-24T10:27:11.572Z,1017.95
2017-01-24T10:28:11.763Z,1017.99
2017-01-24T10:29:11.576Z,1018
2017-01-24T10:30:11.675Z,1018.01
2017-01-24T10:31:11.756Z,1018.04
2017-01-24T10:32:11.686Z,1017.99
2017-01-24T10:33:11.964Z,1018.02
2017-01-24T10:34:11.748Z,1018.05
2017-01-24T10:35:11.669Z,1018.05
2017-01-24T10:36:12.194Z,1018.05
2017-01-24T10:37:11.635Z,1018.05
2017-01-24T10:38:11.802Z,1018.01
2017-01-24T10:39:11.611Z,1018
2017-01-24T10:40:11.648Z,1018.01
2017-01-24T10:41:11.657Z,1017.97
2017-01-24T10:42:11.731Z,1017.98
2017-01-24T10:43:11.774Z,1018.01
2017-01-24T10:44:12.000Z,1018.02
2017-01-24T10:45:11.617Z,1018.03
2017-01-24T10:46:12.707Z,1018.03
2017-01-24T10:47:11.834Z,1018.03
2017-01-24T10:48:11.764Z,1018.01
2017-01-24T10:49:11.825Z,1017.99
2017-01-24T10:50:11.649Z,1018.01
2017-01-24T10:51:11.784Z,1018.02
2017-01-24T10:52:11.875Z,1018.04
2017-01-24T10:53:11.767Z,1018.06
2017-01-24T10:54:11.745Z,1017.99
2017-01-24T10:55:11.945Z,1018.01
2017-01-24T10:56:11.930Z,1017.99
2017-01-24T10:57:12.057Z,1017.97
2017-01-24T10:58:11.974Z,1017.97
2017-01-24T10:59:12.194Z,1017.97
2017-01-24T11:00:11.995Z,1017.97
2017-01-24T11:01:12.223Z,1017.99
2017-01-24T11:02:12.112Z,1017.97
2017-01-24T11:03:11.925Z,1017.98
2017-01-24T11:04:11.979Z,1017.99
2017-01-24T11:05:11.842Z,1018.07
2017-01-24T11:06:12.366Z,1018.05
2017-01-24T11:07:12.378Z,1018.02
2017-01-24T11:08:11.898Z,1018.05
2017-01-24T11:09:12.089Z,1018.04
2017-01-24T11:10:12.004Z,1018.04
2017-01-24T11:11:12.251Z,1018.04
2017-01-24T11:12:12.362Z,1018.04
2017-01-24T11:13:12.014Z,1018.08
2017-01-24T11:14:12.000Z,1018.08
2017-01-24T11:15:12.058Z,1018.07
2017-01-24T11:16:12.655Z,1018.14
2017-01-24T11:17:12.255Z,1018.07
2017-01-24T11:18:12.069Z,1018.07
2017-01-24T11:19:12.300Z,1018.08
2017-01-24T11:20:12.252Z,1018.06
2017-01-24T11:21:12.251Z,1018.05
2017-01-24T11:22:12.204Z,1018.02
2017-01-24T11:23:13.124Z,1018.03
2017-01-24T11:24:12.254Z,1018.01
2017-01-24T11:25:12.204Z,1018.04
2017-01-24T11:26:12.434Z,1018
2017-01-24T11:27:12.343Z,1018.02
2017-01-24T11:28:12.171Z,1018.05
2017-01-24T11:29:12.145Z,1018.07
2017-01-24T11:30:12.118Z,1018.07
2017-01-24T11:31:12.293Z,1018.06
2017-01-24T11:32:12.366Z,1018.07
2017-01-24T11:33:12.313Z,1018.07
2017-01-24T11:34:12.160Z,1018.07
2017-01-24T11:35:12.281Z,1018.01
2017-01-24T11:36:12.364Z,1018.01
2017-01-24T11:37:12.285Z,1018.02
2017-01-24T11:38:12.504Z,1017.97
2017-01-24T11:39:12.287Z,1017.96
2017-01-24T11:40:12.445Z,1017.97
2017-01-24T11:41:12.555Z,1017.99
2017-01-24T11:42:12.517Z,1018
2017-01-24T11:43:12.438Z,1018.01
2017-01-24T11:44:12.429Z,1018.01
2017-01-24T11:45:12.466Z,1018.01
2017-01-24T11:46:12.396Z,1018.02
2017-01-24T11:47:12.502Z,1018
2017-01-24T11:48:12.488Z,1017.99
2017-01-24T11:49:12.393Z,1018
2017-01-24T11:50:12.396Z,1018.04
2017-01-24T11:51:12.784Z,1018.05
2017-01-24T11:52:12.530Z,1018.02
2017-01-24T11:53:12.483Z,1018.05
2017-01-24T11:54:12.612Z,1018.04
2017-01-24T11:55:12.452Z,1018.06
2017-01-24T11:56:12.621Z,1018.04
2017-01-24T11:57:12.622Z,1018.03
2017-01-24T11:58:12.507Z,1018.06
2017-01-24T11:59:12.532Z,1018.05
2017-01-24T12:00:12.820Z,1017.99
2017-01-24T12:01:12.624Z,1017.99
2017-01-24T12:02:12.652Z,1018.02
2017-01-24T12:03:12.716Z,1017.99
2017-01-24T12:04:12.603Z,1018.01
2017-01-24T12:05:12.803Z,1018.01
2017-01-24T12:06:12.715Z,1017.98
2017-01-24T12:07:12.660Z,1017.99
2017-01-24T12:08:12.882Z,1018.02
2017-01-24T12:09:12.724Z,1018.01